Time;durP1;ratioP1;P1;durP2;ratioP2;P2;SDS_P1;SDS_P2;PMS_P1;PMS_P2;Temp;Humidity;BMP_temperature;BMP_pressure;BME280_temperature;BME280_humidity;BME280_pressure;Samples;Min_cycle;Max_cycle;Signal;HPM_P1;HPM_P2
2022/11/06 00:00:42;;;;;;;18.05;7.00;;;11.10;99.90;;;;;;4992433;28;20026;-72
2022/11/06 00:03:08;;;;;;;20.80;6.35;;;11.10;99.90;;;;;;4991337;28;20041;-73
2022/11/06 00:08:28;;;;;;;14.75;6.15;;;11.10;99.90;;;;;;4992201;28;20081;-73
2022/11/06 00:10:53;;;;;;;18.13;6.57;;;11.10;99.90;;;;;;4992479;28;20028;-73
2022/11/06 00:13:19;;;;;;;14.98;6.80;;;11.20;99.90;;;;;;4977166;28;20497;-73
2022/11/06 00:15:45;;;;;;;20.52;6.30;;;11.10;99.90;;;;;;4991768;28;20022;-74
2022/11/06 00:18:10;;;;;;;15.52;6.20;;;11.20;99.90;;;;;;4991891;28;20022;-73
2022/11/06 00:20:36;;;;;;;17.38;6.30;;;11.20;99.90;;;;;;4991942;28;20026;-74
2022/11/06 00:23:02;;;;;;;16.02;6.22;;;11.20;99.90;;;;;;4991268;28;20026;-73
2022/11/06 00:25:27;;;;;;;14.07;5.85;;;11.20;99.90;;;;;;4992033;28;20100;-72
2022/11/06 00:27:53;;;;;;;21.98;6.43;;;11.20;99.90;;;;;;4991612;28;20033;-73
2022/11/06 00:30:19;;;;;;;19.52;6.35;;;11.20;99.90;;;;;;4987385;28;20390;-73
2022/11/06 00:32:46;;;;;;;17.90;7.00;;;11.20;99.90;;;;;;4989622;28;20441;-74
2022/11/06 00:35:12;;;;;;;11.32;6.13;;;11.20;99.90;;;;;;4991653;28;20026;-75
2022/11/06 00:37:38;;;;;;;13.50;6.00;;;11.20;99.90;;;;;;4991314;28;20397;-73
2022/11/06 00:40:04;;;;;;;16.55;6.35;;;11.20;99.90;;;;;;4991533;28;20038;-73
2022/11/06 00:42:30;;;;;;;14.43;6.35;;;11.20;99.90;;;;;;4986437;28;20128;-74
2022/11/06 00:44:55;;;;;;;14.48;6.55;;;11.20;99.90;;;;;;4991535;28;20058;-73
2022/11/06 00:47:21;;;;;;;13.77;6.22;;;11.20;99.90;;;;;;4978881;28;20031;-73
2022/11/06 00:49:47;;;;;;;17.75;6.18;;;11.20;99.90;;;;;;4988304;28;20015;-72
2022/11/06 00:52:12;;;;;;;12.88;6.47;;;11.20;99.90;;;;;;4991515;28;20048;-73
2022/11/06 00:54:38;;;;;;;17.33;6.07;;;11.20;99.90;;;;;;4990244;28;20486;-74
2022/11/06 00:57:03;;;;;;;14.43;6.90;;;11.20;99.90;;;;;;4991745;28;20076;-73
2022/11/06 00:59:29;;;;;;;16.52;6.45;;;11.20;99.90;;;;;;4990634;28;20380;-74
2022/11/06 01:01:55;;;;;;;18.83;6.60;;;11.20;99.90;;;;;;4991509;28;20410;-73
2022/11/06 01:04:22;;;;;;;19.60;6.93;;;11.20;99.90;;;;;;4990892;28;20275;-73
2022/11/06 01:06:51;;;;;;;16.30;6.78;;;11.10;99.90;;;;;;4989576;28;20034;-73
2022/11/06 01:09:23;;;;;;;17.85;6.93;;;11.20;99.90;;;;;;4991299;28;20233;-73
2022/11/06 01:11:51;;;;;;;17.77;6.93;;;11.10;99.90;;;;;;4990659;28;20037;-74
2022/11/06 01:14:19;;;;;;;19.17;7.25;;;11.10;99.90;;;;;;4990728;28;20127;-73
2022/11/06 01:16:45;;;;;;;23.80;7.40;;;11.10;99.90;;;;;;4990613;28;20050;-73
2022/11/06 01:19:12;;;;;;;16.63;6.63;;;11.00;99.90;;;;;;4990893;28;20065;-73
2022/11/06 01:21:40;;;;;;;18.50;6.70;;;11.10;99.90;;;;;;4985638;28;20023;-74
2022/11/06 01:24:11;;;;;;;17.05;7.03;;;11.00;99.90;;;;;;4982097;28;20030;-74
2022/11/06 01:26:37;;;;;;;17.13;6.18;;;11.00;99.90;;;;;;4982756;28;20077;-74
2022/11/06 01:29:04;;;;;;;15.82;6.47;;;11.00;99.90;;;;;;4989999;28;20026;-73
2022/11/06 01:31:31;;;;;;;16.25;6.50;;;11.00;99.90;;;;;;4990886;28;20015;-74
2022/11/06 01:33:59;;;;;;;16.40;6.80;;;11.00;99.90;;;;;;4976783;28;20039;-73
2022/11/06 01:36:26;;;;;;;14.02;6.72;;;10.90;99.90;;;;;;4988060;28;20031;-74
2022/11/06 01:38:55;;;;;;;17.08;6.63;;;10.90;99.90;;;;;;4986353;28;20022;-73
2022/11/06 01:41:38;;;;;;;22.25;7.25;;;10.90;99.90;;;;;;4994076;28;20149;-74
2022/11/06 01:44:39;;;;;;;14.75;6.78;;;10.90;99.90;;;;;;4994328;28;20110;-74
2022/11/06 01:47:18;;;;;;;23.58;7.30;;;10.90;99.90;;;;;;4968713;28;20038;-74
2022/11/06 01:49:44;;;;;;;17.75;7.38;;;10.90;99.90;;;;;;4989937;28;20026;-74
2022/11/06 01:52:13;;;;;;;19.13;6.68;;;10.90;99.90;;;;;;4984933;28;20027;-74
2022/11/06 01:54:41;;;;;;;19.38;7.18;;;10.90;99.90;;;;;;4993928;28;20034;-74
2022/11/06 01:57:09;;;;;;;22.63;7.47;;;10.90;99.90;;;;;;4995067;28;20426;-74
2022/11/06 01:59:38;;;;;;;16.13;7.60;;;10.90;99.90;;;;;;4980091;28;20086;-74
2022/11/06 02:02:04;;;;;;;15.90;8.15;;;10.90;99.90;;;;;;4994494;28;20039;-74
2022/11/06 02:04:48;;;;;;;20.27;7.20;;;10.90;99.90;;;;;;4994321;28;20033;-73
2022/11/06 02:07:16;;;;;;;22.30;6.93;;;10.90;99.90;;;;;;4994488;28;20073;-75
2022/11/06 02:09:42;;;;;;;21.13;7.78;;;10.90;99.90;;;;;;4979908;28;20026;-74
2022/11/06 02:12:40;;;;;;;17.55;7.45;;;10.80;99.90;;;;;;4994245;28;20105;-74
2022/11/06 02:15:30;;;;;;;21.77;7.68;;;10.80;99.90;;;;;;4979433;28;20054;-74
2022/11/06 02:18:17;;;;;;;18.75;7.63;;;10.80;99.90;;;;;;4983802;28;20038;-75
2022/11/06 02:21:01;;;;;;;19.67;7.65;;;10.90;99.90;;;;;;4994053;28;20033;-74
2022/11/06 02:24:03;;;;;;;21.10;7.88;;;10.80;99.90;;;;;;4988243;28;20042;-74
2022/11/06 02:26:44;;;;;;;21.08;7.97;;;10.80;99.90;;;;;;4990537;28;20386;-74
2022/11/06 02:29:17;;;;;;;18.90;8.65;;;10.80;99.90;;;;;;4992232;28;20041;-74
2022/11/06 02:31:45;;;;;;;27.83;8.48;;;10.80;99.90;;;;;;4993660;28;20014;-73
2022/11/06 02:34:14;;;;;;;23.98;8.27;;;10.90;99.90;;;;;;4992817;28;20069;-74
2022/11/06 02:36:45;;;;;;;24.20;8.35;;;10.90;99.90;;;;;;4990836;28;20109;-74
2022/11/06 02:39:14;;;;;;;25.35;9.20;;;10.80;99.90;;;;;;4993680;28;20030;-75
2022/11/06 02:41:44;;;;;;;17.85;8.93;;;10.90;99.90;;;;;;4993795;28;20422;-74
2022/11/06 02:44:16;;;;;;;21.17;9.40;;;10.90;99.90;;;;;;4992799;28;20126;-74
2022/11/06 02:46:59;;;;;;;25.50;9.55;;;10.90;99.90;;;;;;4993136;28;20529;-74
2022/11/06 02:49:29;;;;;;;22.67;10.38;;;10.80;99.90;;;;;;4980310;28;20035;-74
2022/11/06 02:52:02;;;;;;;29.50;9.75;;;10.90;99.90;;;;;;4993387;28;20031;-74
2022/11/06 02:54:33;;;;;;;20.35;9.98;;;10.80;99.90;;;;;;4991707;28;20117;-74
2022/11/06 02:57:04;;;;;;;26.58;10.32;;;10.80;99.90;;;;;;4992907;28;20038;-74
2022/11/06 02:59:57;;;;;;;22.10;10.77;;;10.80;99.90;;;;;;4993184;28;20109;-75
2022/11/06 03:02:57;;;;;;;25.35;10.80;;;10.80;99.90;;;;;;4992651;28;20489;-75
2022/11/06 03:05:31;;;;;;;28.40;11.63;;;10.80;99.90;;;;;;4992486;28;20058;-74
2022/11/06 03:08:25;;;;;;;23.60;10.98;;;10.80;99.90;;;;;;4993087;28;20039;-74
2022/11/06 03:11:08;;;;;;;24.55;11.00;;;10.80;99.90;;;;;;4982240;28;20015;-74
2022/11/06 03:13:58;;;;;;;24.17;11.43;;;10.80;99.90;;;;;;4991342;28;20084;-74
2022/11/06 03:17:16;;;;;;;27.83;12.02;;;10.80;99.90;;;;;;4974230;28;20037;-73
2022/11/06 03:19:54;;;;;;;25.02;11.60;;;10.90;99.90;;;;;;4967605;28;20038;-74
2022/11/06 03:22:40;;;;;;;27.55;11.90;;;10.90;99.90;;;;;;4990278;28;20010;-74
2022/11/06 03:25:18;;;;;;;24.83;12.20;;;10.90;99.90;;;;;;4993038;28;20041;-73
2022/11/06 03:28:04;;;;;;;25.20;11.93;;;10.90;99.90;;;;;;4990938;28;20018;-74
2022/11/06 03:30:33;;;;;;;30.98;11.98;;;10.90;99.90;;;;;;4992340;28;20044;-74
2022/11/06 03:33:15;;;;;;;23.08;12.13;;;10.90;99.90;;;;;;4992819;28;20049;-73
2022/11/06 03:35:47;;;;;;;26.92;12.25;;;10.90;99.90;;;;;;4985061;28;20141;-74
2022/11/06 03:38:44;;;;;;;25.58;13.40;;;10.90;99.90;;;;;;4990897;28;20057;-74
2022/11/06 03:41:40;;;;;;;25.92;13.05;;;10.90;99.90;;;;;;4984260;28;20038;-74
2022/11/06 03:44:10;;;;;;;38.47;14.15;;;10.90;99.90;;;;;;4972890;28;20034;-73
2022/11/06 03:46:41;;;;;;;23.08;13.63;;;10.90;99.90;;;;;;4992347;28;20494;-73
2022/11/06 03:49:11;;;;;;;22.83;13.73;;;10.90;99.90;;;;;;4972885;28;20049;-74
2022/11/06 03:51:39;;;;;;;23.48;12.82;;;11.00;99.90;;;;;;4985096;28;20049;-74
2022/11/06 03:54:14;;;;;;;26.95;12.77;;;11.00;99.90;;;;;;4992261;28;20475;-74
2022/11/06 03:56:44;;;;;;;;;;;11.00;99.90;;;;;;4992091;28;20042;-75
2022/11/06 03:59:12;;;;;;;25.02;12.00;;;11.00;99.90;;;;;;4977849;28;19906;-74
2022/11/06 04:01:43;;;;;;;22.67;12.50;;;10.90;99.90;;;;;;4992203;28;20050;-73
2022/11/06 04:04:35;;;;;;;27.85;13.30;;;11.00;99.90;;;;;;4981844;28;20026;-73
2022/11/06 04:07:06;;;;;;;27.58;13.57;;;11.00;99.90;;;;;;4955679;28;20038;-73
2022/11/06 04:15:11;;;;;;;24.25;11.20;;;11.00;99.90;;;;;;4991419;28;20053;-74
2022/11/06 04:17:38;;;;;;;23.80;10.85;;;11.00;99.90;;;;;;4991642;28;20033;-73
2022/11/06 04:20:08;;;;;;;22.58;10.70;;;11.00;99.90;;;;;;4992369;28;20137;-73
2022/11/06 04:22:47;;;;;;;28.25;11.60;;;11.10;99.90;;;;;;4991714;28;20471;-74
2022/11/06 04:28:50;;;;;;;23.52;11.35;;;11.00;99.90;;;;;;4985989;28;20586;-74
2022/11/06 04:31:33;;;;;;;29.23;12.27;;;11.00;99.90;;;;;;4981099;28;20029;-74
2022/11/06 04:34:04;;;;;;;25.27;12.60;;;11.10;99.90;;;;;;4990560;28;20022;-74
2022/11/06 04:36:47;;;;;;;28.27;12.38;;;11.10;99.90;;;;;;4991065;28;20056;-74
2022/11/06 04:39:37;;;;;;;28.88;11.57;;;11.10;99.90;;;;;;4991691;28;20056;-74
2022/11/06 04:42:08;;;;;;;23.65;10.77;;;11.10;99.90;;;;;;4988854;28;20126;-73
2022/11/06 04:44:46;;;;;;;20.92;9.70;;;11.00;99.90;;;;;;4991784;28;20482;-74
2022/11/06 04:47:15;;;;;;;18.83;9.30;;;11.10;99.90;;;;;;4989036;28;21166;-74
2022/11/06 04:49:43;;;;;;;20.02;9.07;;;11.00;99.90;;;;;;4988961;28;20129;-74
2022/11/06 04:52:18;;;;;;;18.33;9.05;;;11.10;99.90;;;;;;4988222;28;20054;-74
2022/11/06 04:54:45;;;;;;;19.60;8.43;;;11.10;99.90;;;;;;4989005;28;20034;-75
2022/11/06 04:57:11;;;;;;;19.67;8.68;;;11.00;99.90;;;;;;4988646;28;20026;-75
2022/11/06 04:59:37;;;;;;;22.48;8.93;;;11.00;99.90;;;;;;4991007;28;20022;-73
2022/11/06 05:02:04;;;;;;;19.02;8.00;;;11.00;99.90;;;;;;4990705;28;20498;-73
2022/11/06 05:04:30;;;;;;;14.40;8.02;;;11.00;99.90;;;;;;4991019;28;20043;-73
2022/11/06 05:06:56;;;;;;;17.48;7.85;;;10.90;99.90;;;;;;4990991;28;20022;-74
2022/11/06 05:09:22;;;;;;;21.20;7.95;;;11.00;99.90;;;;;;4990932;28;20105;-74
2022/11/06 05:11:47;;;;;;;21.05;7.55;;;10.90;99.90;;;;;;4990308;28;20054;-73
2022/11/06 05:14:13;;;;;;;21.33;7.57;;;10.90;99.90;;;;;;4990727;28;20487;-74
2022/11/06 05:16:39;;;;;;;21.08;7.38;;;10.90;99.90;;;;;;4990421;28;20030;-73
2022/11/06 05:19:05;;;;;;;14.48;6.70;;;10.90;99.90;;;;;;4990994;28;20467;-74
2022/11/06 05:24:14;;;;;;;18.33;7.65;;;10.90;99.90;;;;;;4971315;28;20042;-74
2022/11/06 05:26:40;;;;;;;17.98;7.40;;;10.90;99.90;;;;;;4971489;28;20027;-74
2022/11/06 05:29:06;;;;;;;14.82;6.88;;;10.90;99.90;;;;;;4983542;28;20106;-75
2022/11/06 05:31:31;;;;;;;14.57;5.75;;;10.90;99.90;;;;;;4981640;28;20027;-74
2022/11/06 05:33:57;;;;;;;13.65;6.22;;;10.90;99.90;;;;;;4986391;28;20030;-73
2022/11/06 05:36:23;;;;;;;13.88;6.25;;;10.90;99.90;;;;;;4980322;28;20027;-74
2022/11/06 05:38:48;;;;;;;14.65;5.70;;;10.90;99.90;;;;;;4985368;28;20122;-74
2022/11/06 05:41:14;;;;;;;10.68;5.80;;;10.90;99.90;;;;;;4990696;28;20034;-75
2022/11/06 05:43:39;;;;;;;12.90;5.78;;;10.90;99.90;;;;;;4986325;28;20034;-74
2022/11/06 05:46:05;;;;;;;15.43;5.63;;;10.90;99.90;;;;;;4984624;28;20026;-74
2022/11/06 05:48:31;;;;;;;14.00;5.53;;;10.90;99.90;;;;;;4986138;28;20049;-73
2022/11/06 05:51:02;;;;;;;13.85;5.72;;;10.90;99.90;;;;;;4989556;28;20029;-74
2022/11/06 05:53:29;;;;;;;15.55;6.43;;;10.90;99.90;;;;;;4990346;28;20516;-74
2022/11/06 05:55:55;;;;;;;12.75;5.68;;;10.80;99.90;;;;;;4986382;28;20026;-73
2022/11/06 05:58:20;;;;;;;15.70;6.20;;;10.90;99.90;;;;;;4986154;28;20073;-74
2022/11/06 06:00:46;;;;;;;18.55;6.72;;;10.90;99.90;;;;;;4984897;28;20025;-73
2022/11/06 06:03:11;;;;;;;16.73;5.78;;;10.90;99.90;;;;;;4989610;28;20113;-74
2022/11/06 06:05:37;;;;;;;12.40;5.55;;;10.90;99.90;;;;;;4990507;28;20023;-74
2022/11/06 06:08:04;;;;;;;17.92;6.28;;;10.80;99.90;;;;;;4989400;28;20033;-73
2022/11/06 06:10:29;;;;;;;12.48;5.93;;;10.90;99.90;;;;;;4990566;28;20026;-74
2022/11/06 06:12:55;;;;;;;20.23;6.70;;;10.90;99.90;;;;;;4989830;28;20022;-73
2022/11/06 06:15:20;;;;;;;11.88;5.57;;;10.90;99.90;;;;;;4985473;28;20046;-73
2022/11/06 06:17:46;;;;;;;15.65;5.95;;;10.90;99.90;;;;;;4981545;28;20030;-74
2022/11/06 06:20:11;;;;;;;14.02;5.18;;;10.90;99.90;;;;;;4987750;28;20029;-73
2022/11/06 06:22:37;;;;;;;15.93;5.75;;;10.90;99.90;;;;;;4982513;28;20026;-74
2022/11/06 06:25:03;;;;;;;17.23;5.60;;;10.90;99.90;;;;;;4979776;28;20023;-74
2022/11/06 06:27:30;;;;;;;13.48;5.40;;;10.90;99.90;;;;;;4994082;28;20540;-73
2022/11/06 06:29:56;;;;;;;15.43;5.75;;;10.90;99.90;;;;;;4993755;28;20483;-73
2022/11/06 06:32:21;;;;;;;13.27;5.90;;;10.90;99.90;;;;;;4974989;28;20042;-74
2022/11/06 06:34:47;;;;;;;15.90;5.32;;;10.90;99.90;;;;;;4984107;28;20031;-74
2022/11/06 06:37:13;;;;;;;19.80;5.43;;;10.90;99.90;;;;;;4993677;28;20549;-73
2022/11/06 06:39:38;;;;;;;14.63;4.60;;;10.80;99.90;;;;;;4987398;28;20097;-74
2022/11/06 06:42:04;;;;;;;13.63;4.65;;;10.80;99.90;;;;;;4993343;28;20061;-73
2022/11/06 06:44:30;;;;;;;9.48;3.97;;;10.80;99.90;;;;;;4987313;28;20022;-74
2022/11/06 06:46:56;;;;;;;18.55;3.90;;;10.80;99.90;;;;;;4993177;28;20022;-73
2022/11/06 06:49:22;;;;;;;15.70;4.13;;;10.80;99.90;;;;;;4986929;28;20106;-73
2022/11/06 06:51:48;;;;;;;11.10;3.80;;;10.80;99.90;;;;;;4992883;28;20331;-73
2022/11/06 06:54:14;;;;;;;13.48;4.03;;;10.90;99.90;;;;;;4988019;28;20475;-73
2022/11/06 06:56:39;;;;;;;16.50;3.85;;;10.80;99.90;;;;;;4992956;28;20030;-74
2022/11/06 06:59:06;;;;;;;10.52;3.65;;;10.90;99.90;;;;;;4992987;28;20029;-73
2022/11/06 07:01:32;;;;;;;14.05;3.80;;;10.90;99.90;;;;;;4992552;28;20030;-73
2022/11/06 07:03:58;;;;;;;15.63;3.70;;;10.90;99.90;;;;;;4983515;28;20034;-73
2022/11/06 07:06:23;;;;;;;8.57;3.40;;;10.90;99.90;;;;;;4988049;28;20114;-74
2022/11/06 07:08:49;;;;;;;9.93;3.40;;;10.90;99.90;;;;;;4993793;28;20117;-73
2022/11/06 07:11:17;;;;;;;11.63;3.10;;;10.90;99.90;;;;;;4991965;28;20023;-73
2022/11/06 07:13:42;;;;;;;14.07;3.53;;;11.00;99.90;;;;;;4991469;28;20023;-73
2022/11/06 07:16:10;;;;;;;11.10;3.38;;;11.00;99.90;;;;;;4990534;28;20022;-73
2022/11/06 07:18:37;;;;;;;18.48;3.95;;;11.00;99.90;;;;;;4990007;28;20102;-73
2022/11/06 07:21:11;;;;;;;11.35;3.42;;;11.00;99.90;;;;;;4989763;28;20045;-74
2022/11/06 07:23:37;;;;;;;15.75;4.05;;;11.10;99.90;;;;;;4987640;28;21245;-73
2022/11/06 07:26:03;;;;;;;15.75;3.53;;;11.10;99.90;;;;;;4989581;28;20574;-74
2022/11/06 07:28:30;;;;;;;10.73;3.28;;;11.10;99.90;;;;;;4989839;28;20031;-74
2022/11/06 07:31:00;;;;;;;14.00;3.20;;;11.10;99.90;;;;;;4987535;28;20497;-73
2022/11/06 07:33:26;;;;;;;9.35;3.30;;;11.10;99.90;;;;;;4987451;28;20205;-73
2022/11/06 07:35:51;;;;;;;11.48;3.30;;;11.20;99.90;;;;;;4989557;28;20117;-73
2022/11/06 07:38:17;;;;;;;9.88;3.38;;;11.20;99.90;;;;;;4987756;28;20496;-73
2022/11/06 07:40:42;;;;;;;12.45;3.28;;;11.20;99.90;;;;;;4988973;28;20029;-73
2022/11/06 07:43:10;;;;;;;14.25;3.67;;;11.30;99.90;;;;;;4989545;28;20050;-73
2022/11/06 07:45:37;;;;;;;11.95;3.10;;;11.30;99.90;;;;;;4989244;28;20050;-73
2022/11/06 07:48:03;;;;;;;13.77;3.15;;;11.30;99.90;;;;;;4989439;28;20014;-73
2022/11/06 07:50:30;;;;;;;6.80;2.70;;;11.40;99.90;;;;;;4988515;28;20097;-73
2022/11/06 07:52:55;;;;;;;8.10;2.50;;;11.40;99.90;;;;;;4990061;28;20022;-73
2022/11/06 07:55:21;;;;;;;8.65;2.90;;;11.40;99.90;;;;;;4988195;28;20499;-73
2022/11/06 07:57:47;;;;;;;9.57;2.85;;;11.40;99.90;;;;;;4988490;28;20041;-74
2022/11/06 08:00:14;;;;;;;13.20;2.85;;;11.40;99.90;;;;;;4990096;28;20073;-73
2022/11/06 08:02:40;;;;;;;10.50;3.00;;;11.50;99.90;;;;;;4990873;28;20112;-74
2022/11/06 08:05:06;;;;;;;12.85;2.80;;;11.50;99.90;;;;;;4990975;28;20089;-73
2022/11/06 08:07:32;;;;;;;10.88;3.10;;;11.50;99.90;;;;;;4991430;28;20030;-74
2022/11/06 08:09:57;;;;;;;9.88;2.53;;;11.50;99.90;;;;;;4991916;28;20042;-73
2022/11/06 08:12:23;;;;;;;14.77;3.10;;;11.50;99.90;;;;;;4989899;28;20047;-74
2022/11/06 08:14:48;;;;;;;9.07;2.80;;;11.50;99.90;;;;;;4991361;28;20408;-74
2022/11/06 08:17:14;;;;;;;13.00;2.75;;;11.50;99.90;;;;;;4988203;28;20026;-74
2022/11/06 08:19:39;;;;;;;10.60;2.75;;;11.50;99.90;;;;;;4992130;28;20113;-73
2022/11/06 08:22:05;;;;;;;10.55;2.67;;;11.50;99.90;;;;;;4990309;28;20019;-73
2022/11/06 08:24:31;;;;;;;10.57;2.58;;;11.40;99.90;;;;;;4985233;28;20382;-73
2022/11/06 08:26:57;;;;;;;10.00;3.15;;;11.40;99.90;;;;;;4989435;28;20530;-74
2022/11/06 08:29:23;;;;;;;12.18;3.28;;;11.40;99.90;;;;;;4980368;28;20038;-74
2022/11/06 08:31:49;;;;;;;15.73;3.05;;;11.40;99.90;;;;;;4984595;28;20467;-74
2022/11/06 08:34:14;;;;;;;10.07;2.72;;;11.40;99.90;;;;;;4988957;28;20103;-75
2022/11/06 08:36:44;;;;;;;14.25;2.92;;;11.40;99.90;;;;;;4988745;28;20018;-75
2022/11/06 08:39:10;;;;;;;10.45;2.35;;;11.40;99.90;;;;;;4991315;28;20101;-74
2022/11/06 08:41:38;;;;;;;11.57;2.58;;;11.40;99.90;;;;;;4990975;28;20085;-74
2022/11/06 08:44:03;;;;;;;10.43;2.83;;;11.40;99.90;;;;;;4990102;28;20539;-74
2022/11/06 08:46:29;;;;;;;12.88;2.72;;;11.40;99.90;;;;;;4989933;28;20026;-74
2022/11/06 08:48:54;;;;;;;15.52;2.95;;;11.40;99.90;;;;;;4989364;28;20029;-74
2022/11/06 08:51:20;;;;;;;13.60;2.78;;;11.50;99.90;;;;;;4990862;28;20022;-74
2022/11/06 08:53:46;;;;;;;11.20;2.47;;;11.50;99.90;;;;;;4990923;28;20054;-74
2022/11/06 08:56:13;;;;;;;12.20;3.03;;;11.50;99.90;;;;;;4990184;28;20041;-74
2022/11/06 08:58:38;;;;;;;10.55;2.90;;;11.50;99.90;;;;;;4990326;28;20505;-74
2022/11/06 09:01:04;;;;;;;11.73;2.75;;;11.60;99.90;;;;;;5002300;28;20034;-74
2022/11/06 09:03:30;;;;;;;11.05;2.60;;;11.60;99.90;;;;;;4989036;28;20037;-74
2022/11/06 09:05:55;;;;;;;11.88;3.15;;;11.70;99.90;;;;;;4984894;28;20530;-74
2022/11/06 09:08:23;;;;;;;13.55;2.90;;;11.70;99.90;;;;;;4987998;28;20026;-73
2022/11/06 09:10:49;;;;;;;12.75;2.95;;;11.80;99.90;;;;;;4982214;28;20026;-73
2022/11/06 09:13:14;;;;;;;12.20;2.60;;;11.80;99.90;;;;;;4988582;28;20547;-73
2022/11/06 09:15:40;;;;;;;14.00;3.10;;;11.80;99.90;;;;;;4988112;28;20056;-73
2022/11/06 09:18:06;;;;;;;12.57;2.80;;;11.90;99.90;;;;;;4988844;28;20097;-74
2022/11/06 09:20:31;;;;;;;7.95;2.42;;;11.90;99.90;;;;;;4988893;28;20076;-73
2022/11/06 09:23:02;;;;;;;9.13;2.88;;;12.00;99.90;;;;;;4988366;28;20569;-75
2022/11/06 09:25:28;;;;;;;14.75;3.35;;;12.00;99.90;;;;;;4987362;28;20457;-73
2022/11/06 09:27:54;;;;;;;11.63;3.38;;;12.00;99.90;;;;;;4989377;28;20045;-74
2022/11/06 09:30:21;;;;;;;9.38;3.00;;;12.00;99.90;;;;;;4987843;28;20030;-75
2022/11/06 09:32:50;;;;;;;14.48;2.70;;;12.00;99.90;;;;;;4989204;28;20034;-74
2022/11/06 09:35:16;;;;;;;9.82;2.80;;;12.00;99.90;;;;;;4990475;28;20018;-73
2022/11/06 09:37:42;;;;;;;10.80;2.90;;;12.10;99.90;;;;;;4990316;28;20027;-73
2022/11/06 09:40:15;;;;;;;15.73;3.50;;;12.10;99.90;;;;;;4987806;28;20030;-74
2022/11/06 09:42:56;;;;;;;11.55;3.08;;;12.10;99.90;;;;;;4989195;28;20051;-74
2022/11/06 09:45:25;;;;;;;10.35;2.60;;;12.10;99.90;;;;;;4987020;28;20029;-73
2022/11/06 09:48:09;;;;;;;11.27;3.42;;;12.20;99.90;;;;;;4988441;28;20022;-74
2022/11/06 09:50:40;;;;;;;8.70;2.78;;;12.20;99.90;;;;;;4986382;28;20559;-74
2022/11/06 09:53:16;;;;;;;10.05;3.42;;;12.20;99.90;;;;;;4985573;28;20034;-74
2022/11/06 09:55:43;;;;;;;12.38;3.00;;;12.20;99.90;;;;;;4991277;28;20034;-74
2022/11/06 09:58:14;;;;;;;12.15;2.92;;;12.30;99.90;;;;;;4993623;28;20037;-73
2022/11/06 10:00:41;;;;;;;10.07;2.55;;;12.30;99.90;;;;;;4993351;28;20026;-74
2022/11/06 10:03:22;;;;;;;8.25;2.50;;;12.30;99.90;;;;;;4992833;28;20669;-74
2022/11/06 10:05:51;;;;;;;7.72;2.15;;;12.40;99.90;;;;;;4990671;28;20068;-73
2022/11/06 10:08:23;;;;;;;10.90;2.45;;;12.40;99.90;;;;;;4989774;28;20037;-73
2022/11/06 10:11:01;;;;;;;11.35;2.47;;;12.40;99.90;;;;;;4993633;28;20054;-73
2022/11/06 10:14:00;;;;;;;13.32;2.60;;;12.40;99.90;;;;;;4992625;28;20403;-73
2022/11/06 10:16:58;;;;;;;9.25;2.15;;;12.40;99.90;;;;;;4989109;28;20042;-73
2022/11/06 10:19:44;;;;;;;13.13;2.72;;;12.40;99.90;;;;;;4988767;28;20120;-74
2022/11/06 10:22:17;;;;;;;;;;;12.40;99.90;;;;;;4989267;28;20020;-73
2022/11/06 10:24:44;;;;;;;7.95;2.28;;;12.40;99.90;;;;;;4990899;28;19910;-73
2022/11/06 10:27:39;;;;;;;8.65;2.35;;;12.40;99.90;;;;;;4990908;28;20077;-74
2022/11/06 10:30:16;;;;;;;12.05;2.65;;;12.40;99.90;;;;;;4988957;28;20030;-73
2022/11/06 10:32:51;;;;;;;9.63;2.78;;;12.40;99.90;;;;;;4980612;28;20498;-74
2022/11/06 10:35:30;;;;;;;12.07;2.20;;;12.30;99.90;;;;;;4992103;28;20061;-73
2022/11/06 10:38:04;;;;;;;10.02;2.17;;;12.30;99.90;;;;;;4986704;28;20042;-73
2022/11/06 10:40:31;;;;;;;11.80;2.85;;;12.30;99.90;;;;;;4991777;28;20092;-74
2022/11/06 10:43:20;;;;;;;13.70;2.45;;;12.30;99.90;;;;;;4992549;28;20057;-73
2022/11/06 10:45:51;;;;;;;13.00;2.47;;;12.30;99.90;;;;;;4993266;28;20538;-73
2022/11/06 10:48:27;;;;;;;14.98;2.55;;;12.30;99.90;;;;;;4993053;28;20446;-77
2022/11/06 10:51:27;;;;;;;12.48;2.40;;;12.30;99.90;;;;;;5013281;28;20045;-74
2022/11/06 10:54:32;;;;;;;10.15;2.50;;;12.20;99.90;;;;;;4989889;28;20101;-73
2022/11/06 10:56:57;;;;;;;12.35;2.45;;;12.20;99.90;;;;;;4992107;28;20046;-74
2022/11/06 10:59:23;;;;;;;11.07;2.92;;;12.20;99.90;;;;;;4992286;28;20069;-73
2022/11/06 11:01:49;;;;;;;13.50;2.65;;;12.20;99.90;;;;;;4991416;28;20142;-73
2022/11/06 11:04:14;;;;;;;14.63;2.70;;;12.20;99.90;;;;;;4992075;28;20545;-73
2022/11/06 11:06:40;;;;;;;11.45;2.72;;;12.10;99.90;;;;;;4992418;28;20077;-73
2022/11/06 11:09:32;;;;;;;12.43;2.50;;;12.10;99.90;;;;;;4989979;28;20054;-74
2022/11/06 11:11:59;;;;;;;11.70;2.50;;;12.10;99.90;;;;;;4984279;28;20052;-74
2022/11/06 11:14:27;;;;;;;9.32;2.20;;;12.10;99.90;;;;;;4992148;28;20544;-73
2022/11/06 11:16:59;;;;;;;8.38;2.15;;;12.10;99.90;;;;;;4992206;28;20022;-73
2022/11/06 11:19:42;;;;;;;10.82;2.50;;;12.10;99.90;;;;;;5007876;28;20085;-73
2022/11/06 11:22:21;;;;;;;9.75;2.67;;;12.00;99.90;;;;;;4986607;28;20045;-73
2022/11/06 11:25:00;;;;;;;8.05;2.38;;;12.00;99.90;;;;;;4992232;28;20041;-73
2022/11/06 11:27:27;;;;;;;13.05;2.85;;;11.90;99.90;;;;;;4990855;28;20027;-72
2022/11/06 11:29:53;;;;;;;10.63;2.90;;;11.90;99.90;;;;;;5006309;28;20109;-73
2022/11/06 11:32:20;;;;;;;12.15;2.42;;;11.90;99.90;;;;;;4991584;28;20121;-74
2022/11/06 11:34:49;;;;;;;10.85;2.45;;;11.80;99.90;;;;;;4990218;28;20034;-72
2022/11/06 11:37:28;;;;;;;14.90;2.50;;;11.80;99.90;;;;;;4984978;28;20036;-72
2022/11/06 11:39:54;;;;;;;11.70;2.47;;;11.80;99.90;;;;;;4988808;28;20030;-72
2022/11/06 11:42:23;;;;;;;6.07;2.15;;;11.80;99.90;;;;;;4991374;28;20048;-73
2022/11/06 11:45:07;;;;;;;7.30;2.25;;;11.70;99.90;;;;;;4990070;28;20030;-71
2022/11/06 11:47:33;;;;;;;11.75;2.30;;;11.70;99.90;;;;;;4986985;28;20028;-72
2022/11/06 11:50:17;;;;;;;8.27;2.05;;;11.70;99.90;;;;;;4990581;28;20076;-72
2022/11/06 11:52:45;;;;;;;10.10;2.35;;;11.70;99.90;;;;;;4985922;28;20038;-72
2022/11/06 11:55:20;;;;;;;10.98;2.60;;;11.80;99.90;;;;;;4988634;28;20045;-73
2022/11/06 11:57:48;;;;;;;12.48;2.60;;;11.80;99.90;;;;;;4989210;28;20030;-72
2022/11/06 12:00:18;;;;;;;9.88;2.20;;;11.80;99.90;;;;;;4989874;28;20023;-75
2022/11/06 12:03:03;;;;;;;8.90;2.45;;;11.80;99.90;;;;;;4989692;28;20041;-71
2022/11/06 12:05:36;;;;;;;10.88;2.45;;;11.80;99.90;;;;;;4991244;28;20030;-71
2022/11/06 12:08:03;;;;;;;11.32;2.58;;;11.80;99.90;;;;;;4990387;28;20028;-71
2022/11/06 12:10:33;;;;;;;9.35;2.60;;;11.80;99.90;;;;;;4990961;28;20343;-72
2022/11/06 12:13:02;;;;;;;9.88;2.90;;;11.90;99.90;;;;;;4988005;28;20110;-72
2022/11/06 12:15:44;;;;;;;9.80;2.60;;;11.90;99.90;;;;;;4990368;28;20355;-72
2022/11/06 12:18:17;;;;;;;13.18;3.00;;;11.90;99.90;;;;;;4990623;28;20045;-73
2022/11/06 12:21:00;;;;;;;15.52;3.45;;;11.90;99.90;;;;;;4987528;28;20033;-72
2022/11/06 12:23:47;;;;;;;11.45;3.70;;;11.90;99.90;;;;;;4989120;28;20418;-72
2022/11/06 12:26:18;;;;;;;11.18;3.33;;;12.00;99.90;;;;;;4990979;28;20018;-71
2022/11/06 12:28:46;;;;;;;13.02;3.63;;;11.90;99.90;;;;;;4988787;28;20398;-73
2022/11/06 12:31:40;;;;;;;12.43;3.35;;;11.90;99.90;;;;;;4982548;28;20023;-72
2022/11/06 12:34:12;;;;;;;7.15;2.88;;;11.90;99.90;;;;;;4988454;28;20058;-73
2022/11/06 12:36:44;;;;;;;13.68;3.13;;;11.90;99.90;;;;;;4982750;28;20189;-72
2022/11/06 12:39:18;;;;;;;10.90;2.97;;;11.90;99.90;;;;;;4985995;28;20534;-73
2022/11/06 12:41:47;;;;;;;10.07;2.95;;;11.90;99.90;;;;;;4984708;28;20167;-72
2022/11/06 12:44:15;;;;;;;10.15;3.20;;;11.90;99.90;;;;;;4988350;28;20088;-72
2022/11/06 12:46:49;;;;;;;11.18;3.05;;;11.90;99.90;;;;;;4984843;28;20661;-72
2022/11/06 12:49:23;;;;;;;12.48;2.92;;;11.90;99.90;;;;;;4988143;28;20114;-73
2022/11/06 12:52:32;;;;;;;8.60;3.13;;;11.80;99.90;;;;;;4981977;28;20038;-71
2022/11/06 12:55:13;;;;;;;9.40;3.00;;;11.80;99.90;;;;;;4928025;29;20070;-72
2022/11/06 12:58:12;;;;;;;13.48;3.33;;;11.80;99.90;;;;;;4941893;29;20586;-73
2022/11/06 13:01:04;;;;;;;11.70;3.10;;;11.80;99.90;;;;;;4944940;28;20028;-73
2022/11/06 13:03:29;;;;;;;10.40;2.80;;;11.70;99.90;;;;;;4947633;28;20541;-70
2022/11/06 13:06:07;;;;;;;8.18;3.00;;;11.70;99.90;;;;;;4948510;28;20106;-71
2022/11/06 13:08:44;;;;;;;11.57;3.10;;;11.70;99.90;;;;;;4948260;28;20610;-70
2022/11/06 13:11:32;;;;;;;11.68;3.10;;;11.70;99.90;;;;;;4932349;29;20035;-71
2022/11/06 13:14:18;;;;;;;7.72;2.67;;;11.70;99.90;;;;;;4950414;28;20118;-71